NWK361 YPPH-YBAS
Flight info
| Callsign | NWK361 |
|---|---|
| Flight time | 2h 25m |
| Altitude | 37000 |
| Route | PH Y31 LAKIR Y69 UPRUN W408 AS |
| Aircraft | A319/M-SDE3FGHIRWY/LB1 |
Departure
| Time | 2026-04-24 06:12 |
|---|---|
| Airport | Perth International Airport (YPPH) |
Arrival
| Time | 2026-04-24 08:37 |
|---|---|
| Airport | Alice Springs Airport (YBAS) |
| Time | Latitude | Longitude | Altitude | Speed | Heading |
|---|---|---|---|---|---|
| 2026-04-24 05:30 | -31.93535 | 115.96101 | 55 ft | 0 kts | 300° |
| 2026-04-24 06:00 | -31.93547 | 115.96124 | 50 ft | 4 kts | 304° |
| 2026-04-24 06:00 | -31.93564 | 115.96149 | 55 ft | 4 kts | 316° |
| 2026-04-24 06:00 | -31.93581 | 115.96166 | 55 ft | 1 kts | 332° |
| 2026-04-24 06:01 | -31.93585 | 115.96168 | 49 ft | 0 kts | 332° |
| 2026-04-24 06:03 | -31.93586 | 115.96169 | 49 ft | 2 kts | 332° |
| 2026-04-24 06:03 | -31.93600 | 115.96178 | 49 ft | 2 kts | 332° |
| 2026-04-24 06:03 | -31.93615 | 115.96185 | 48 ft | 2 kts | 357° |
| 2026-04-24 06:04 | -31.93624 | 115.96186 | 51 ft | 0 kts | 13° |
| 2026-04-24 06:05 | -31.93621 | 115.96186 | 52 ft | 1 kts | 13° |
| 2026-04-24 06:05 | -31.93598 | 115.96193 | 50 ft | 7 kts | 14° |
| 2026-04-24 06:05 | -31.93532 | 115.96218 | 54 ft | 13 kts | 30° |
| 2026-04-24 06:06 | -31.93447 | 115.96275 | 55 ft | 15 kts | 24° |
| 2026-04-24 06:06 | -31.93339 | 115.96316 | 54 ft | 18 kts | 10° |
| 2026-04-24 06:06 | -31.93211 | 115.96331 | 54 ft | 19 kts | 8° |
| 2026-04-24 06:06 | -31.93093 | 115.96410 | 49 ft | 21 kts | 46° |
| 2026-04-24 06:07 | -31.92988 | 115.96543 | 50 ft | 22 kts | 47° |
| 2026-04-24 06:07 | -31.92868 | 115.96609 | 53 ft | 14 kts | 24° |
| 2026-04-24 06:07 | -31.92851 | 115.96707 | 52 ft | 10 kts | 104° |
| 2026-04-24 06:07 | -31.92852 | 115.96712 | 50 ft | 0 kts | 104° |
| 2026-04-24 06:08 | -31.92853 | 115.96718 | 51 ft | 3 kts | 104° |
| 2026-04-24 06:08 | -31.92868 | 115.96786 | 51 ft | 13 kts | 104° |
| 2026-04-24 06:08 | -31.92890 | 115.96897 | 53 ft | 15 kts | 103° |
| 2026-04-24 06:08 | -31.92919 | 115.97028 | 52 ft | 17 kts | 104° |
| 2026-04-24 06:09 | -31.92948 | 115.97170 | 53 ft | 18 kts | 104° |
| 2026-04-24 06:09 | -31.92981 | 115.97322 | 52 ft | 20 kts | 104° |
| 2026-04-24 06:09 | -31.93017 | 115.97492 | 60 ft | 22 kts | 104° |
| 2026-04-24 06:09 | -31.93049 | 115.97647 | 68 ft | 14 kts | 104° |
| 2026-04-24 06:10 | -31.93057 | 115.97683 | 62 ft | 0 kts | 104° |
| 2026-04-24 06:10 | -31.93057 | 115.97684 | 62 ft | 1 kts | 104° |
| 2026-04-24 06:10 | -31.93064 | 115.97717 | 64 ft | 10 kts | 104° |
| 2026-04-24 06:11 | -31.93124 | 115.97810 | 69 ft | 7 kts | 234° |
| 2026-04-24 06:11 | -31.93187 | 115.97690 | 62 ft | 43 kts | 239° |
| 2026-04-24 06:11 | -31.93452 | 115.97179 | 68 ft | 104 kts | 239° |
| 2026-04-24 06:11 | -31.93931 | 115.96262 | 74 ft | 157 kts | 238° |
| 2026-04-24 06:12 | -31.94496 | 115.95124 | 634 ft | 161 kts | 240° |
| 2026-04-24 06:12 | -31.95051 | 115.94005 | 1343 ft | 155 kts | 240° |
| 2026-04-24 06:12 | -31.95685 | 115.93008 | 1996 ft | 153 kts | 220° |
| 2026-04-24 06:12 | -31.96792 | 115.92736 | 2241 ft | 183 kts | 174° |
| 2026-04-24 06:13 | -31.98108 | 115.93038 | 2572 ft | 202 kts | 173° |
| 2026-04-24 06:13 | -31.99607 | 115.93320 | 2729 ft | 237 kts | 174° |
| 2026-04-24 06:13 | -32.01309 | 115.93647 | 3335 ft | 254 kts | 169° |
| 2026-04-24 06:13 | -32.02870 | 115.94693 | 4211 ft | 272 kts | 135° |
| 2026-04-24 06:14 | -32.03830 | 115.96674 | 4988 ft | 286 kts | 111° |
| 2026-04-24 06:14 | -32.04404 | 115.98923 | 5960 ft | 288 kts | 104° |
| 2026-04-24 06:14 | -32.04840 | 116.01256 | 6805 ft | 295 kts | 102° |
| 2026-04-24 06:14 | -32.05261 | 116.03628 | 7740 ft | 296 kts | 103° |
| 2026-04-24 06:15 | -32.05722 | 116.06000 | 8605 ft | 300 kts | 104° |
| 2026-04-24 06:15 | -32.06230 | 116.08410 | 9434 ft | 305 kts | 105° |
| 2026-04-24 06:15 | -32.06777 | 116.10849 | 10178 ft | 311 kts | 106° |
| 2026-04-24 06:15 | -32.07368 | 116.13389 | 10458 ft | 334 kts | 106° |
| 2026-04-24 06:16 | -32.07931 | 116.16122 | 10874 ft | 350 kts | 98° |
| 2026-04-24 06:16 | -32.07999 | 116.19017 | 11524 ft | 356 kts | 84° |
| 2026-04-24 06:16 | -32.07476 | 116.21884 | 12201 ft | 360 kts | 68° |
| 2026-04-24 06:16 | -32.06372 | 116.24533 | 12878 ft | 361 kts | 53° |
| 2026-04-24 06:17 | -32.04770 | 116.26813 | 13582 ft | 361 kts | 43° |
| 2026-04-24 06:17 | -32.03033 | 116.28964 | 14254 ft | 365 kts | 42° |
| 2026-04-24 06:17 | -32.01278 | 116.31144 | 14842 ft | 368 kts | 42° |
| 2026-04-24 06:17 | -31.99507 | 116.33351 | 15454 ft | 373 kts | 42° |
| 2026-04-24 06:18 | -31.97718 | 116.35583 | 16055 ft | 377 kts | 41° |
| 2026-04-24 06:18 | -31.95911 | 116.37837 | 16653 ft | 381 kts | 41° |
| 2026-04-24 06:18 | -31.94082 | 116.40116 | 17240 ft | 385 kts | 41° |
| 2026-04-24 06:18 | -31.92232 | 116.42419 | 17834 ft | 389 kts | 40° |
| 2026-04-24 06:19 | -31.90361 | 116.44746 | 18423 ft | 393 kts | 40° |
| 2026-04-24 06:19 | -31.88471 | 116.47097 | 18916 ft | 397 kts | 40° |
| 2026-04-24 06:19 | -31.86563 | 116.49468 | 19443 ft | 401 kts | 40° |
| 2026-04-24 06:19 | -31.84642 | 116.51852 | 19944 ft | 404 kts | 39° |
| 2026-04-24 06:20 | -31.82694 | 116.54266 | 20468 ft | 408 kts | 39° |
| 2026-04-24 06:20 | -31.80735 | 116.56697 | 20989 ft | 411 kts | 39° |
| 2026-04-24 06:20 | -31.78786 | 116.59115 | 21490 ft | 414 kts | 39° |
| 2026-04-24 06:20 | -31.76795 | 116.61586 | 21984 ft | 418 kts | 39° |
| 2026-04-24 06:21 | -31.74787 | 116.64072 | 22470 ft | 421 kts | 38° |
| 2026-04-24 06:21 | -31.72758 | 116.66577 | 22962 ft | 425 kts | 38° |
| 2026-04-24 06:21 | -31.70715 | 116.69100 | 23458 ft | 428 kts | 38° |
| 2026-04-24 06:21 | -31.68655 | 116.71641 | 23901 ft | 431 kts | 38° |
| 2026-04-24 06:22 | -31.66579 | 116.74199 | 24309 ft | 434 kts | 38° |
| 2026-04-24 06:22 | -31.64494 | 116.76773 | 24719 ft | 436 kts | 38° |
| 2026-04-24 06:22 | -31.63110 | 116.78481 | 24983 ft | 438 kts | 38° |
| 2026-04-24 06:22 | -31.61006 | 116.81075 | 25389 ft | 440 kts | 38° |
| 2026-04-24 06:23 | -31.58885 | 116.83688 | 25780 ft | 442 kts | 38° |
| 2026-04-24 06:23 | -31.56775 | 116.86331 | 26170 ft | 448 kts | 41° |
| 2026-04-24 06:23 | -31.54917 | 116.89316 | 26561 ft | 460 kts | 52° |
| 2026-04-24 06:23 | -31.53398 | 116.92653 | 26948 ft | 466 kts | 56° |
| 2026-04-24 06:24 | -31.51921 | 116.96045 | 27329 ft | 468 kts | 56° |
| 2026-04-24 06:24 | -31.50437 | 116.99443 | 27706 ft | 471 kts | 56° |
| 2026-04-24 06:24 | -31.48940 | 117.02862 | 28087 ft | 473 kts | 56° |
| 2026-04-24 06:24 | -31.47429 | 117.06301 | 28468 ft | 475 kts | 56° |
| 2026-04-24 06:25 | -31.45914 | 117.09748 | 28843 ft | 477 kts | 56° |
| 2026-04-24 06:25 | -31.44393 | 117.13202 | 29216 ft | 479 kts | 56° |
| 2026-04-24 06:25 | -31.42862 | 117.16676 | 29587 ft | 481 kts | 56° |
| 2026-04-24 06:25 | -31.41320 | 117.20173 | 29948 ft | 483 kts | 56° |
| 2026-04-24 06:26 | -31.39775 | 117.23676 | 30290 ft | 485 kts | 56° |
| 2026-04-24 06:26 | -31.38222 | 117.27193 | 30586 ft | 487 kts | 56° |
| 2026-04-24 06:26 | -31.36667 | 117.30715 | 30868 ft | 489 kts | 56° |
| 2026-04-24 06:26 | -31.35102 | 117.34258 | 31151 ft | 491 kts | 56° |
| 2026-04-24 06:27 | -31.33527 | 117.37820 | 31430 ft | 493 kts | 56° |
| 2026-04-24 06:27 | -31.31950 | 117.41377 | 31720 ft | 494 kts | 56° |
| 2026-04-24 06:27 | -31.30369 | 117.44937 | 32115 ft | 493 kts | 56° |
| 2026-04-24 06:27 | -31.28788 | 117.48497 | 32516 ft | 492 kts | 56° |
| 2026-04-24 06:28 | -31.27191 | 117.52012 | 32917 ft | 488 kts | 52° |
| 2026-04-24 06:28 | -31.25301 | 117.55258 | 33287 ft | 480 kts | 45° |
| 2026-04-24 06:28 | -31.23282 | 117.58361 | 33679 ft | 479 kts | 45° |
| 2026-04-24 06:28 | -31.21264 | 117.61465 | 34072 ft | 478 kts | 45° |
| 2026-04-24 06:29 | -31.19279 | 117.64518 | 34412 ft | 478 kts | 45° |
| 2026-04-24 06:29 | -31.17249 | 117.67653 | 34731 ft | 478 kts | 45° |
| 2026-04-24 06:29 | -31.15273 | 117.70708 | 35029 ft | 477 kts | 44° |
| 2026-04-24 06:29 | -31.13268 | 117.73799 | 35314 ft | 477 kts | 44° |
| 2026-04-24 06:30 | -31.11265 | 117.76887 | 35605 ft | 477 kts | 44° |
| 2026-04-24 06:30 | -31.09257 | 117.79975 | 35876 ft | 477 kts | 44° |
| 2026-04-24 06:30 | -31.07248 | 117.83057 | 36147 ft | 477 kts | 43° |
| 2026-04-24 06:30 | -31.05238 | 117.86137 | 36409 ft | 477 kts | 43° |
| 2026-04-24 06:31 | -31.03226 | 117.89218 | 36666 ft | 477 kts | 43° |
| 2026-04-24 06:31 | -31.01215 | 117.92298 | 36918 ft | 478 kts | 42° |
| 2026-04-24 06:31 | -30.99203 | 117.95382 | 37080 ft | 478 kts | 42° |
| 2026-04-24 06:32 | -30.95171 | 118.01544 | 37118 ft | 478 kts | 42° |
| 2026-04-24 06:32 | -30.91138 | 118.07703 | 37112 ft | 478 kts | 42° |
| 2026-04-24 06:33 | -30.87102 | 118.13861 | 37109 ft | 478 kts | 41° |
| 2026-04-24 06:33 | -30.83054 | 118.20013 | 37111 ft | 479 kts | 41° |
| 2026-04-24 06:34 | -30.79005 | 118.26165 | 37098 ft | 479 kts | 41° |
| 2026-04-24 06:34 | -30.74956 | 118.32319 | 37095 ft | 479 kts | 41° |
| 2026-04-24 06:35 | -30.70892 | 118.38468 | 37087 ft | 479 kts | 41° |
| 2026-04-24 06:35 | -30.66829 | 118.44605 | 37084 ft | 480 kts | 40° |
| 2026-04-24 06:36 | -30.62763 | 118.50752 | 37081 ft | 480 kts | 40° |
| 2026-04-24 06:36 | -30.58691 | 118.56899 | 37079 ft | 480 kts | 40° |
| 2026-04-24 06:37 | -30.54614 | 118.63047 | 37072 ft | 481 kts | 40° |
| 2026-04-24 06:37 | -30.50522 | 118.69188 | 37073 ft | 481 kts | 40° |
| 2026-04-24 06:38 | -30.46427 | 118.75332 | 37069 ft | 482 kts | 39° |
| 2026-04-24 06:38 | -30.42323 | 118.81477 | 37066 ft | 482 kts | 39° |
| 2026-04-24 06:39 | -30.38218 | 118.87627 | 37060 ft | 483 kts | 39° |
| 2026-04-24 06:39 | -30.34109 | 118.93772 | 37063 ft | 483 kts | 39° |
| 2026-04-24 06:40 | -30.29984 | 118.99919 | 37067 ft | 484 kts | 39° |
| 2026-04-24 06:40 | -30.25851 | 119.06061 | 37061 ft | 484 kts | 38° |
| 2026-04-24 06:41 | -30.21719 | 119.12213 | 37061 ft | 484 kts | 38° |
| 2026-04-24 06:41 | -30.17583 | 119.18366 | 37056 ft | 485 kts | 38° |
| 2026-04-24 06:42 | -30.13439 | 119.24517 | 37057 ft | 485 kts | 38° |
| 2026-04-24 06:42 | -30.09278 | 119.30672 | 37052 ft | 485 kts | 38° |
| 2026-04-24 06:43 | -30.05214 | 119.36938 | 37048 ft | 492 kts | 41° |
| 2026-04-24 06:43 | -30.01387 | 119.43536 | 37054 ft | 496 kts | 43° |
| 2026-04-24 06:44 | -29.97613 | 119.50204 | 37062 ft | 496 kts | 43° |
| 2026-04-24 06:44 | -29.93776 | 119.56785 | 37060 ft | 494 kts | 42° |
| 2026-04-24 06:45 | -29.89877 | 119.63308 | 37061 ft | 494 kts | 41° |
| 2026-04-24 06:45 | -29.85977 | 119.69831 | 37055 ft | 495 kts | 41° |
| 2026-04-24 06:46 | -29.82091 | 119.76377 | 37053 ft | 495 kts | 41° |
| 2026-04-24 06:46 | -29.78211 | 119.82935 | 37051 ft | 496 kts | 42° |
| 2026-04-24 06:47 | -29.74320 | 119.89498 | 37052 ft | 496 kts | 41° |
| 2026-04-24 06:47 | -29.70420 | 119.96029 | 37048 ft | 496 kts | 41° |
| 2026-04-24 06:48 | -29.66498 | 120.02565 | 37043 ft | 496 kts | 41° |
| 2026-04-24 06:48 | -29.62614 | 120.09053 | 37041 ft | 497 kts | 41° |
| 2026-04-24 06:49 | -29.58699 | 120.15597 | 37041 ft | 497 kts | 41° |
| 2026-04-24 06:49 | -29.54779 | 120.22149 | 37041 ft | 497 kts | 41° |
| 2026-04-24 06:50 | -29.50852 | 120.28684 | 37036 ft | 497 kts | 41° |
| 2026-04-24 06:50 | -29.46919 | 120.35202 | 37037 ft | 497 kts | 41° |
| 2026-04-24 06:51 | -29.42981 | 120.41724 | 37043 ft | 497 kts | 41° |
| 2026-04-24 06:51 | -29.39051 | 120.48235 | 37038 ft | 497 kts | 41° |
| 2026-04-24 06:52 | -29.35114 | 120.54739 | 37043 ft | 496 kts | 41° |
| 2026-04-24 06:52 | -29.31172 | 120.61229 | 37033 ft | 496 kts | 41° |
| 2026-04-24 06:53 | -29.27241 | 120.67710 | 37036 ft | 495 kts | 41° |
| 2026-04-24 06:53 | -29.23336 | 120.74145 | 37041 ft | 495 kts | 41° |
| 2026-04-24 06:54 | -29.19403 | 120.80612 | 37037 ft | 494 kts | 41° |
| 2026-04-24 06:54 | -29.15472 | 120.87066 | 37035 ft | 494 kts | 41° |
| 2026-04-24 06:55 | -29.11539 | 120.93513 | 37034 ft | 493 kts | 41° |
| 2026-04-24 06:55 | -29.07600 | 120.99939 | 37029 ft | 493 kts | 41° |
| 2026-04-24 06:56 | -29.03663 | 121.06367 | 37027 ft | 493 kts | 41° |
| 2026-04-24 06:56 | -28.99732 | 121.12785 | 37021 ft | 493 kts | 41° |
| 2026-04-24 06:57 | -28.95783 | 121.19193 | 37015 ft | 493 kts | 41° |
| 2026-04-24 06:57 | -28.91837 | 121.25601 | 37015 ft | 493 kts | 41° |
| 2026-04-24 06:58 | -28.88018 | 121.32081 | 37012 ft | 505 kts | 50° |
| 2026-04-24 06:58 | -28.86508 | 121.35757 | 37008 ft | 516 kts | 57° |
| 2026-04-24 06:58 | -28.85130 | 121.39539 | 37013 ft | 516 kts | 56° |
| 2026-04-24 06:59 | -28.82364 | 121.47098 | 37010 ft | 516 kts | 56° |
| 2026-04-24 06:59 | -28.79588 | 121.54654 | 37013 ft | 516 kts | 56° |
| 2026-04-24 07:00 | -28.76813 | 121.62205 | 37009 ft | 517 kts | 56° |
| 2026-04-24 07:00 | -28.74035 | 121.69752 | 37009 ft | 516 kts | 56° |
| 2026-04-24 07:01 | -28.71252 | 121.77292 | 36997 ft | 516 kts | 56° |
| 2026-04-24 07:01 | -28.68460 | 121.84811 | 37001 ft | 516 kts | 56° |
| 2026-04-24 07:02 | -28.65659 | 121.92336 | 37013 ft | 515 kts | 56° |
| 2026-04-24 07:02 | -28.62883 | 121.99798 | 37016 ft | 515 kts | 56° |
| 2026-04-24 07:03 | -28.60091 | 122.07305 | 37015 ft | 515 kts | 56° |
| 2026-04-24 07:03 | -28.57299 | 122.14797 | 37009 ft | 515 kts | 56° |
| 2026-04-24 07:04 | -28.54500 | 122.22290 | 36999 ft | 514 kts | 56° |
| 2026-04-24 07:04 | -28.51694 | 122.29773 | 36996 ft | 514 kts | 56° |
| 2026-04-24 07:05 | -28.48888 | 122.37253 | 36993 ft | 514 kts | 56° |
| 2026-04-24 07:05 | -28.46067 | 122.44717 | 36995 ft | 514 kts | 56° |
| 2026-04-24 07:06 | -28.43253 | 122.52179 | 36992 ft | 514 kts | 56° |
| 2026-04-24 07:06 | -28.40446 | 122.59643 | 36987 ft | 513 kts | 56° |
| 2026-04-24 07:07 | -28.37623 | 122.67088 | 36988 ft | 513 kts | 56° |
| 2026-04-24 07:07 | -28.33859 | 122.76992 | 36985 ft | 513 kts | 56° |
| 2026-04-24 07:08 | -28.31030 | 122.84424 | 36982 ft | 513 kts | 56° |
| 2026-04-24 07:08 | -28.27745 | 122.93059 | 36984 ft | 513 kts | 56° |
| 2026-04-24 07:09 | -28.24917 | 123.00483 | 36976 ft | 512 kts | 56° |
| 2026-04-24 07:09 | -28.22539 | 123.06694 | 36979 ft | 512 kts | 56° |
| 2026-04-24 07:10 | -28.19701 | 123.14094 | 36976 ft | 512 kts | 57° |
| 2026-04-24 07:10 | -28.16861 | 123.21498 | 36975 ft | 512 kts | 57° |
| 2026-04-24 07:11 | -28.14031 | 123.28858 | 36970 ft | 512 kts | 57° |
| 2026-04-24 07:11 | -28.11182 | 123.36247 | 36970 ft | 512 kts | 57° |
| 2026-04-24 07:12 | -28.08325 | 123.43642 | 36975 ft | 512 kts | 57° |
| 2026-04-24 07:12 | -28.05462 | 123.51029 | 36973 ft | 512 kts | 57° |
| 2026-04-24 07:13 | -28.02596 | 123.58414 | 36972 ft | 512 kts | 57° |
| 2026-04-24 07:13 | -27.99731 | 123.65802 | 36969 ft | 512 kts | 57° |
| 2026-04-24 07:14 | -27.96854 | 123.73180 | 36968 ft | 512 kts | 57° |
| 2026-04-24 07:14 | -27.93976 | 123.80558 | 36973 ft | 513 kts | 57° |
| 2026-04-24 07:15 | -27.91099 | 123.87934 | 36967 ft | 513 kts | 57° |
| 2026-04-24 07:15 | -27.88215 | 123.95308 | 36972 ft | 513 kts | 57° |
| 2026-04-24 07:16 | -27.85332 | 124.02672 | 36975 ft | 513 kts | 57° |
| 2026-04-24 07:16 | -27.82441 | 124.10045 | 36973 ft | 513 kts | 57° |
| 2026-04-24 07:17 | -27.79539 | 124.17403 | 36979 ft | 513 kts | 57° |
| 2026-04-24 07:17 | -27.76636 | 124.24756 | 36979 ft | 513 kts | 57° |
| 2026-04-24 07:18 | -27.73733 | 124.32096 | 36979 ft | 512 kts | 57° |
| 2026-04-24 07:18 | -27.70827 | 124.39444 | 36985 ft | 512 kts | 57° |
| 2026-04-24 07:19 | -27.67922 | 124.46782 | 36986 ft | 512 kts | 57° |
| 2026-04-24 07:19 | -27.65009 | 124.54108 | 36991 ft | 512 kts | 57° |
| 2026-04-24 07:20 | -27.62096 | 124.61428 | 36995 ft | 511 kts | 57° |
| 2026-04-24 07:20 | -27.59182 | 124.68746 | 36995 ft | 511 kts | 57° |
| 2026-04-24 07:21 | -27.56265 | 124.76036 | 36994 ft | 511 kts | 58° |
| 2026-04-24 07:21 | -27.53355 | 124.83286 | 36996 ft | 510 kts | 58° |
| 2026-04-24 07:22 | -27.50436 | 124.90575 | 36994 ft | 510 kts | 58° |
| 2026-04-24 07:22 | -27.47520 | 124.97857 | 36993 ft | 511 kts | 58° |
| 2026-04-24 07:23 | -27.44590 | 125.05150 | 36992 ft | 511 kts | 58° |
| 2026-04-24 07:23 | -27.41647 | 125.12427 | 36989 ft | 511 kts | 58° |
| 2026-04-24 07:24 | -27.38704 | 125.19708 | 36990 ft | 511 kts | 58° |
| 2026-04-24 07:24 | -27.35755 | 125.26993 | 36990 ft | 512 kts | 58° |
| 2026-04-24 07:25 | -27.32804 | 125.34288 | 36988 ft | 512 kts | 58° |
| 2026-04-24 07:25 | -27.29849 | 125.41572 | 36989 ft | 513 kts | 58° |
| 2026-04-24 07:26 | -27.26879 | 125.48869 | 36988 ft | 513 kts | 58° |
| 2026-04-24 07:26 | -27.23898 | 125.56168 | 36991 ft | 514 kts | 58° |
| 2026-04-24 07:27 | -27.20908 | 125.63470 | 36994 ft | 515 kts | 58° |
| 2026-04-24 07:27 | -27.17919 | 125.70783 | 37002 ft | 515 kts | 58° |
| 2026-04-24 07:28 | -27.14927 | 125.78097 | 36996 ft | 516 kts | 58° |
| 2026-04-24 07:28 | -27.11930 | 125.85415 | 36998 ft | 516 kts | 58° |
| 2026-04-24 07:29 | -27.08923 | 125.92731 | 36999 ft | 516 kts | 58° |
| 2026-04-24 07:29 | -27.05904 | 126.00041 | 37004 ft | 516 kts | 58° |
| 2026-04-24 07:30 | -27.02883 | 126.07356 | 37014 ft | 517 kts | 58° |
| 2026-04-24 07:30 | -26.99887 | 126.14616 | 37007 ft | 517 kts | 58° |
| 2026-04-24 07:31 | -26.96861 | 126.21922 | 37010 ft | 517 kts | 58° |
| 2026-04-24 07:31 | -26.93823 | 126.29228 | 37016 ft | 517 kts | 58° |
| 2026-04-24 07:32 | -26.90767 | 126.36572 | 37028 ft | 517 kts | 58° |
| 2026-04-24 07:32 | -26.87751 | 126.43817 | 37032 ft | 516 kts | 58° |
| 2026-04-24 07:33 | -26.84708 | 126.51102 | 37034 ft | 516 kts | 58° |
| 2026-04-24 07:33 | -26.81665 | 126.58386 | 37039 ft | 516 kts | 58° |
| 2026-04-24 07:34 | -26.78622 | 126.65664 | 37041 ft | 516 kts | 58° |
| 2026-04-24 07:34 | -26.75574 | 126.72936 | 37042 ft | 516 kts | 58° |
| 2026-04-24 07:35 | -26.72520 | 126.80201 | 37038 ft | 516 kts | 58° |
| 2026-04-24 07:35 | -26.69459 | 126.87457 | 37033 ft | 516 kts | 58° |
| 2026-04-24 07:36 | -26.66397 | 126.94704 | 37031 ft | 515 kts | 58° |
| 2026-04-24 07:36 | -26.63336 | 127.01949 | 37033 ft | 515 kts | 58° |
| 2026-04-24 07:37 | -26.60281 | 127.09185 | 37031 ft | 515 kts | 58° |
| 2026-04-24 07:37 | -26.57218 | 127.16413 | 37030 ft | 514 kts | 58° |
| 2026-04-24 07:38 | -26.54151 | 127.23631 | 37031 ft | 514 kts | 58° |
| 2026-04-24 07:38 | -26.51080 | 127.30844 | 37033 ft | 514 kts | 58° |
| 2026-04-24 07:39 | -26.48000 | 127.38053 | 37038 ft | 514 kts | 58° |
| 2026-04-24 07:39 | -26.44922 | 127.45267 | 37038 ft | 514 kts | 59° |
| 2026-04-24 07:40 | -26.41851 | 127.52468 | 37041 ft | 514 kts | 59° |
| 2026-04-24 07:40 | -26.38794 | 127.59619 | 37045 ft | 514 kts | 59° |
| 2026-04-24 07:41 | -26.35708 | 127.66805 | 37048 ft | 513 kts | 58° |
| 2026-04-24 07:41 | -26.32621 | 127.73980 | 37052 ft | 513 kts | 59° |
| 2026-04-24 07:42 | -26.29538 | 127.81155 | 37052 ft | 513 kts | 59° |
| 2026-04-24 07:42 | -26.26446 | 127.88320 | 37059 ft | 513 kts | 58° |
| 2026-04-24 07:43 | -26.23350 | 127.95476 | 37057 ft | 513 kts | 59° |
| 2026-04-24 07:43 | -26.20257 | 128.02625 | 37061 ft | 513 kts | 59° |
| 2026-04-24 07:44 | -26.17154 | 128.09775 | 37065 ft | 512 kts | 59° |
| 2026-04-24 07:44 | -26.14062 | 128.16912 | 37070 ft | 512 kts | 59° |
| 2026-04-24 07:45 | -26.10963 | 128.24054 | 37069 ft | 512 kts | 59° |
| 2026-04-24 07:45 | -26.07861 | 128.31172 | 37069 ft | 512 kts | 59° |
| 2026-04-24 07:46 | -26.04752 | 128.38292 | 37070 ft | 512 kts | 59° |
| 2026-04-24 07:46 | -26.01657 | 128.45357 | 37072 ft | 511 kts | 59° |
| 2026-04-24 07:47 | -25.98544 | 128.52458 | 37073 ft | 511 kts | 59° |
| 2026-04-24 07:47 | -25.95436 | 128.59563 | 37075 ft | 510 kts | 59° |
| 2026-04-24 07:48 | -25.92328 | 128.66641 | 37077 ft | 510 kts | 59° |
| 2026-04-24 07:48 | -25.89210 | 128.73710 | 37084 ft | 509 kts | 59° |
| 2026-04-24 07:49 | -25.86100 | 128.80777 | 37084 ft | 509 kts | 59° |
| 2026-04-24 07:49 | -25.82985 | 128.87840 | 37084 ft | 509 kts | 59° |
| 2026-04-24 07:50 | -25.79869 | 128.94886 | 37083 ft | 508 kts | 59° |
| 2026-04-24 07:50 | -25.76756 | 129.01925 | 37085 ft | 508 kts | 59° |
| 2026-04-24 07:51 | -25.73631 | 129.08959 | 37086 ft | 508 kts | 59° |
| 2026-04-24 07:51 | -25.70510 | 129.15982 | 37085 ft | 508 kts | 59° |
| 2026-04-24 07:52 | -25.67412 | 129.22964 | 37084 ft | 507 kts | 59° |
| 2026-04-24 07:52 | -25.64288 | 129.29971 | 37085 ft | 507 kts | 59° |
| 2026-04-24 07:53 | -25.61149 | 129.36978 | 37089 ft | 507 kts | 59° |
| 2026-04-24 07:53 | -25.58013 | 129.43984 | 37090 ft | 507 kts | 59° |
| 2026-04-24 07:54 | -25.54876 | 129.50989 | 37089 ft | 507 kts | 59° |
| 2026-04-24 07:54 | -25.52266 | 129.56815 | 37094 ft | 507 kts | 59° |
| 2026-04-24 07:55 | -25.49135 | 129.63804 | 37096 ft | 507 kts | 59° |
| 2026-04-24 07:55 | -25.46316 | 129.70966 | 37098 ft | 512 kts | 71° |
| 2026-04-24 07:56 | -25.44574 | 129.78621 | 37106 ft | 513 kts | 74° |
| 2026-04-24 07:56 | -25.42847 | 129.86280 | 37102 ft | 513 kts | 73° |
| 2026-04-24 07:57 | -25.41104 | 129.93936 | 37104 ft | 513 kts | 73° |
| 2026-04-24 07:57 | -25.39367 | 130.01604 | 37106 ft | 513 kts | 73° |
| 2026-04-24 07:58 | -25.37627 | 130.09258 | 37106 ft | 514 kts | 73° |
| 2026-04-24 07:58 | -25.35880 | 130.16914 | 37108 ft | 514 kts | 73° |
| 2026-04-24 07:59 | -25.34150 | 130.24521 | 37108 ft | 513 kts | 73° |
| 2026-04-24 07:59 | -25.32399 | 130.32173 | 37106 ft | 513 kts | 73° |
| 2026-04-24 08:00 | -25.30641 | 130.39819 | 37105 ft | 513 kts | 73° |
| 2026-04-24 08:00 | -25.28887 | 130.47460 | 37100 ft | 513 kts | 73° |
| 2026-04-24 08:01 | -25.27126 | 130.55099 | 37098 ft | 513 kts | 73° |
| 2026-04-24 08:01 | -25.25360 | 130.62731 | 37105 ft | 512 kts | 73° |
| 2026-04-24 08:02 | -25.23585 | 130.70356 | 37104 ft | 512 kts | 73° |
| 2026-04-24 08:02 | -25.21818 | 130.77982 | 37101 ft | 512 kts | 73° |
| 2026-04-24 08:03 | -25.20044 | 130.85594 | 37100 ft | 512 kts | 73° |
| 2026-04-24 08:03 | -25.18275 | 130.93154 | 37101 ft | 512 kts | 73° |
| 2026-04-24 08:04 | -25.16128 | 131.00613 | 37100 ft | 509 kts | 65° |
| 2026-04-24 08:04 | -25.13469 | 131.07863 | 37100 ft | 510 kts | 65° |
| 2026-04-24 08:05 | -25.10816 | 131.15130 | 37100 ft | 510 kts | 65° |
| 2026-04-24 08:05 | -25.08174 | 131.22387 | 37106 ft | 510 kts | 65° |
| 2026-04-24 08:06 | -25.05523 | 131.29637 | 37105 ft | 510 kts | 65° |
| 2026-04-24 08:06 | -25.02857 | 131.36893 | 37103 ft | 510 kts | 65° |
| 2026-04-24 08:07 | -25.00186 | 131.44150 | 37107 ft | 511 kts | 65° |
| 2026-04-24 08:07 | -24.97510 | 131.51401 | 37114 ft | 511 kts | 65° |
| 2026-04-24 08:08 | -24.94836 | 131.58656 | 37117 ft | 511 kts | 65° |
| 2026-04-24 08:09 | -24.90825 | 131.69499 | 37124 ft | 512 kts | 65° |
| 2026-04-24 08:09 | -24.88136 | 131.76753 | 37126 ft | 512 kts | 65° |
| 2026-04-24 08:10 | -24.85445 | 131.84003 | 37131 ft | 511 kts | 65° |
| 2026-04-24 08:10 | -24.82752 | 131.91246 | 37127 ft | 511 kts | 66° |
| 2026-04-24 08:11 | -24.80062 | 131.98493 | 37129 ft | 511 kts | 66° |
| 2026-04-24 08:11 | -24.78714 | 132.02104 | 36950 ft | 512 kts | 66° |
| 2026-04-24 08:11 | -24.77350 | 132.05750 | 36227 ft | 517 kts | 66° |
| 2026-04-24 08:11 | -24.75983 | 132.09404 | 35767 ft | 515 kts | 66° |
| 2026-04-24 08:12 | -24.74618 | 132.13049 | 35229 ft | 515 kts | 66° |
| 2026-04-24 08:12 | -24.73254 | 132.16692 | 34699 ft | 515 kts | 66° |
| 2026-04-24 08:12 | -24.71892 | 132.20333 | 34148 ft | 515 kts | 66° |
| 2026-04-24 08:12 | -24.70532 | 132.23972 | 33557 ft | 514 kts | 66° |
| 2026-04-24 08:13 | -24.69175 | 132.27596 | 33013 ft | 511 kts | 66° |
| 2026-04-24 08:13 | -24.67818 | 132.31207 | 32471 ft | 509 kts | 66° |
| 2026-04-24 08:13 | -24.66470 | 132.34794 | 31933 ft | 506 kts | 66° |
| 2026-04-24 08:13 | -24.65132 | 132.38346 | 31484 ft | 501 kts | 66° |
| 2026-04-24 08:14 | -24.63797 | 132.41883 | 31039 ft | 497 kts | 66° |
| 2026-04-24 08:14 | -24.62481 | 132.45370 | 30612 ft | 492 kts | 66° |
| 2026-04-24 08:14 | -24.61156 | 132.48818 | 30146 ft | 488 kts | 63° |
| 2026-04-24 08:14 | -24.59493 | 132.52035 | 29645 ft | 481 kts | 55° |
| 2026-04-24 08:15 | -24.57693 | 132.55113 | 29166 ft | 476 kts | 55° |
| 2026-04-24 08:15 | -24.55918 | 132.58154 | 28772 ft | 469 kts | 55° |
| 2026-04-24 08:15 | -24.54188 | 132.61120 | 28324 ft | 465 kts | 55° |
| 2026-04-24 08:15 | -24.52450 | 132.64101 | 27824 ft | 461 kts | 55° |
| 2026-04-24 08:16 | -24.50734 | 132.67046 | 27429 ft | 455 kts | 56° |
| 2026-04-24 08:16 | -24.49033 | 132.69964 | 27021 ft | 450 kts | 56° |
| 2026-04-24 08:16 | -24.47350 | 132.72850 | 26557 ft | 447 kts | 56° |
| 2026-04-24 08:16 | -24.45686 | 132.75702 | 26181 ft | 442 kts | 56° |
| 2026-04-24 08:17 | -24.44029 | 132.78529 | 25813 ft | 437 kts | 56° |
| 2026-04-24 08:17 | -24.42384 | 132.81332 | 25332 ft | 435 kts | 56° |
| 2026-04-24 08:17 | -24.40761 | 132.84095 | 25060 ft | 428 kts | 56° |
| 2026-04-24 08:17 | -24.39151 | 132.86836 | 24661 ft | 426 kts | 56° |
| 2026-04-24 08:18 | -24.37556 | 132.89554 | 24295 ft | 422 kts | 56° |
| 2026-04-24 08:18 | -24.35978 | 132.92248 | 23930 ft | 418 kts | 56° |
| 2026-04-24 08:18 | -24.34417 | 132.94906 | 23505 ft | 412 kts | 56° |
| 2026-04-24 08:18 | -24.32875 | 132.97526 | 22770 ft | 406 kts | 56° |
| 2026-04-24 08:19 | -24.31356 | 133.00103 | 22113 ft | 398 kts | 56° |
| 2026-04-24 08:19 | -24.29875 | 133.02615 | 21705 ft | 384 kts | 56° |
| 2026-04-24 08:19 | -24.28456 | 133.05027 | 21298 ft | 371 kts | 56° |
| 2026-04-24 08:19 | -24.27082 | 133.07367 | 20896 ft | 359 kts | 56° |
| 2026-04-24 08:20 | -24.25750 | 133.09633 | 20501 ft | 349 kts | 56° |
| 2026-04-24 08:20 | -24.24452 | 133.11833 | 20117 ft | 339 kts | 56° |
| 2026-04-24 08:20 | -24.23189 | 133.13973 | 19741 ft | 330 kts | 56° |
| 2026-04-24 08:20 | -24.21953 | 133.16069 | 19379 ft | 327 kts | 56° |
| 2026-04-24 08:21 | -24.20720 | 133.18156 | 19012 ft | 327 kts | 56° |
| 2026-04-24 08:21 | -24.19496 | 133.20226 | 18644 ft | 328 kts | 56° |
| 2026-04-24 08:21 | -24.18254 | 133.22320 | 18238 ft | 328 kts | 56° |
| 2026-04-24 08:21 | -24.17012 | 133.24414 | 17848 ft | 327 kts | 57° |
| 2026-04-24 08:22 | -24.15780 | 133.26498 | 17470 ft | 325 kts | 57° |
| 2026-04-24 08:22 | -24.14555 | 133.28572 | 17101 ft | 324 kts | 57° |
| 2026-04-24 08:22 | -24.13335 | 133.30635 | 16718 ft | 322 kts | 57° |
| 2026-04-24 08:22 | -24.12120 | 133.32686 | 16356 ft | 320 kts | 57° |
| 2026-04-24 08:23 | -24.10914 | 133.34722 | 15986 ft | 319 kts | 57° |
| 2026-04-24 08:23 | -24.09711 | 133.36755 | 15616 ft | 317 kts | 57° |
| 2026-04-24 08:23 | -24.08510 | 133.38781 | 15246 ft | 316 kts | 57° |
| 2026-04-24 08:23 | -24.07317 | 133.40794 | 14872 ft | 315 kts | 58° |
| 2026-04-24 08:24 | -24.06130 | 133.42797 | 14505 ft | 313 kts | 58° |
| 2026-04-24 08:24 | -24.04950 | 133.44787 | 14135 ft | 312 kts | 58° |
| 2026-04-24 08:24 | -24.03772 | 133.46773 | 13739 ft | 310 kts | 58° |
| 2026-04-24 08:24 | -24.02597 | 133.48749 | 13355 ft | 308 kts | 58° |
| 2026-04-24 08:25 | -24.01437 | 133.50702 | 12988 ft | 305 kts | 58° |
| 2026-04-24 08:25 | -24.00284 | 133.52642 | 12620 ft | 303 kts | 58° |
| 2026-04-24 08:25 | -23.99141 | 133.54568 | 12252 ft | 301 kts | 58° |
| 2026-04-24 08:25 | -23.98004 | 133.56483 | 11892 ft | 299 kts | 58° |
| 2026-04-24 08:26 | -23.96873 | 133.58384 | 11523 ft | 298 kts | 58° |
| 2026-04-24 08:26 | -23.95747 | 133.60275 | 11158 ft | 296 kts | 58° |
| 2026-04-24 08:26 | -23.94572 | 133.62116 | 10795 ft | 295 kts | 49° |
| 2026-04-24 08:26 | -23.92941 | 133.63495 | 10284 ft | 302 kts | 27° |
| 2026-04-24 08:27 | -23.90905 | 133.64093 | 9860 ft | 305 kts | 5° |
| 2026-04-24 08:27 | -23.88826 | 133.63825 | 9672 ft | 299 kts | 348° |
| 2026-04-24 08:27 | -23.86850 | 133.63301 | 9133 ft | 295 kts | 348° |
| 2026-04-24 08:27 | -23.84872 | 133.62768 | 8686 ft | 288 kts | 348° |
| 2026-04-24 08:28 | -23.82961 | 133.62250 | 8316 ft | 279 kts | 348° |
| 2026-04-24 08:28 | -23.81104 | 133.61747 | 7964 ft | 271 kts | 348° |
| 2026-04-24 08:28 | -23.79302 | 133.61260 | 7617 ft | 264 kts | 348° |
| 2026-04-24 08:28 | -23.77551 | 133.60952 | 7481 ft | 244 kts | 1° |
| 2026-04-24 08:29 | -23.75931 | 133.61102 | 7401 ft | 223 kts | 15° |
| 2026-04-24 08:29 | -23.74508 | 133.61561 | 7319 ft | 208 kts | 21° |
| 2026-04-24 08:29 | -23.73147 | 133.62036 | 7238 ft | 203 kts | 21° |
| 2026-04-24 08:29 | -23.71809 | 133.62501 | 7142 ft | 200 kts | 21° |
| 2026-04-24 08:30 | -23.70483 | 133.62963 | 7046 ft | 200 kts | 21° |
| 2026-04-24 08:30 | -23.69160 | 133.63440 | 6944 ft | 199 kts | 26° |
| 2026-04-24 08:30 | -23.68137 | 133.64379 | 6856 ft | 193 kts | 61° |
| 2026-04-24 08:30 | -23.67766 | 133.65762 | 6714 ft | 192 kts | 91° |
| 2026-04-24 08:31 | -23.68150 | 133.67134 | 6423 ft | 190 kts | 119° |
| 2026-04-24 08:31 | -23.68827 | 133.68379 | 6068 ft | 194 kts | 119° |
| 2026-04-24 08:31 | -23.69511 | 133.69643 | 5764 ft | 192 kts | 119° |
| 2026-04-24 08:31 | -23.70181 | 133.70886 | 5514 ft | 189 kts | 119° |
| 2026-04-24 08:32 | -23.70843 | 133.72114 | 5255 ft | 187 kts | 119° |
| 2026-04-24 08:32 | -23.71502 | 133.73337 | 5016 ft | 187 kts | 119° |
| 2026-04-24 08:32 | -23.72159 | 133.74558 | 4777 ft | 187 kts | 119° |
| 2026-04-24 08:32 | -23.72817 | 133.75780 | 4528 ft | 186 kts | 119° |
| 2026-04-24 08:33 | -23.73472 | 133.76997 | 4286 ft | 185 kts | 119° |
| 2026-04-24 08:33 | -23.74115 | 133.78192 | 4058 ft | 185 kts | 119° |
| 2026-04-24 08:33 | -23.74767 | 133.79403 | 3825 ft | 185 kts | 119° |
| 2026-04-24 08:33 | -23.75414 | 133.80606 | 3590 ft | 183 kts | 119° |
| 2026-04-24 08:34 | -23.76035 | 133.81759 | 3363 ft | 169 kts | 119° |
| 2026-04-24 08:34 | -23.76608 | 133.82826 | 3150 ft | 158 kts | 118° |
| 2026-04-24 08:34 | -23.77155 | 133.83844 | 2955 ft | 152 kts | 118° |
| 2026-04-24 08:34 | -23.77660 | 133.84782 | 2780 ft | 137 kts | 118° |
| 2026-04-24 08:35 | -23.78130 | 133.85660 | 2602 ft | 132 kts | 118° |
| 2026-04-24 08:35 | -23.78595 | 133.86524 | 2438 ft | 132 kts | 118° |
| 2026-04-24 08:35 | -23.79059 | 133.87388 | 2271 ft | 131 kts | 117° |
| 2026-04-24 08:35 | -23.79510 | 133.88248 | 2054 ft | 130 kts | 117° |
| 2026-04-24 08:36 | -23.79966 | 133.89094 | 1877 ft | 129 kts | 117° |
| 2026-04-24 08:36 | -23.80407 | 133.89917 | 1789 ft | 111 kts | 121° |
| 2026-04-24 08:36 | -23.80667 | 133.90391 | 1784 ft | 55 kts | 121° |
| 2026-04-24 08:36 | -23.80869 | 133.90767 | 1781 ft | 59 kts | 120° |
| 2026-04-24 08:37 | -23.81073 | 133.91144 | 1779 ft | 53 kts | 120° |
| 2026-04-24 08:37 | -23.81165 | 133.91376 | 1777 ft | 18 kts | 99° |
| 2026-04-24 08:37 | -23.81199 | 133.91384 | 1775 ft | 6 kts | 258° |
| 2026-04-24 08:37 | -23.81173 | 133.91325 | 1778 ft | 12 kts | 301° |
| 2026-04-24 08:38 | -23.81107 | 133.91202 | 1778 ft | 23 kts | 301° |
| 2026-04-24 08:38 | -23.81018 | 133.91037 | 1779 ft | 31 kts | 301° |
| 2026-04-24 08:38 | -23.80899 | 133.90816 | 1781 ft | 37 kts | 300° |
| 2026-04-24 08:38 | -23.80768 | 133.90574 | 1782 ft | 37 kts | 301° |
| 2026-04-24 08:39 | -23.80653 | 133.90363 | 1784 ft | 19 kts | 301° |
| 2026-04-24 08:39 | -23.80560 | 133.90340 | 1786 ft | 12 kts | 27° |
| 2026-04-24 08:39 | -23.80499 | 133.90378 | 1785 ft | 8 kts | 27° |
| 2026-04-24 08:39 | -23.80455 | 133.90354 | 1786 ft | 8 kts | 296° |
| 2026-04-24 08:40 | -23.80427 | 133.90298 | 1786 ft | 9 kts | 299° |
| 2026-04-24 08:40 | -23.80396 | 133.90240 | 1787 ft | 9 kts | 300° |
| 2026-04-24 08:40 | -23.80364 | 133.90181 | 1787 ft | 9 kts | 300° |
| 2026-04-24 08:40 | -23.80332 | 133.90121 | 1788 ft | 9 kts | 300° |
| 2026-04-24 08:41 | -23.80304 | 133.90081 | 1788 ft | 2 kts | 1° |
| 2026-04-24 08:41 | -23.80290 | 133.90097 | 1788 ft | 3 kts | 68° |
| 2026-04-24 08:41 | -23.80281 | 133.90120 | 1787 ft | 4 kts | 73° |
| 2026-04-24 08:41 | -23.80280 | 133.90126 | 1787 ft | 0 kts | 75° |